createdAt,value
2022-11-05T06:32:34.295Z,22.73
2022-11-05T06:35:00.805Z,22.60
2022-11-05T06:37:27.862Z,23.33
2022-11-05T06:39:54.532Z,21.88
2022-11-05T06:42:21.089Z,26.38
2022-11-05T06:44:47.671Z,24.52
2022-11-05T06:47:14.259Z,23.40
2022-11-05T06:49:40.752Z,27.13
2022-11-05T06:52:07.241Z,26.17
2022-11-05T06:54:33.999Z,25.10
2022-11-05T06:57:00.511Z,26.27
2022-11-05T06:59:26.999Z,24.10
2022-11-05T07:01:53.550Z,22.53
2022-11-05T07:04:20.384Z,23.33
2022-11-05T07:06:46.912Z,23.52
2022-11-05T07:09:13.454Z,23.92
2022-11-05T07:11:40.243Z,20.88
2022-11-05T07:14:07.527Z,22.20
2022-11-05T07:16:34.011Z,25.15
2022-11-05T07:19:00.504Z,23.65
2022-11-05T07:21:27.956Z,21.58
2022-11-05T07:23:54.470Z,23.25
2022-11-05T07:26:20.989Z,21.53
2022-11-05T07:28:47.485Z,22.63
2022-11-05T07:31:13.992Z,24.65
2022-11-05T07:33:40.984Z,22.90
2022-11-05T07:36:07.906Z,23.58
2022-11-05T07:38:34.426Z,24.50
2022-11-05T07:41:01.258Z,20.50
2022-11-05T07:43:27.767Z,24.23
2022-11-05T07:45:54.812Z,23.48
2022-11-05T07:48:21.314Z,23.67
2022-11-05T07:50:51.815Z,19.23
2022-11-05T07:53:18.591Z,20.27
2022-11-05T07:55:46.025Z,20.15
2022-11-05T07:58:12.659Z,17.90
2022-11-05T08:00:39.662Z,19.40
2022-11-05T08:03:09.145Z,17.63
2022-11-05T08:05:38.536Z,20.05
2022-11-05T08:08:06.733Z,18.52
2022-11-05T08:10:34.223Z,14.75
2022-11-05T08:13:00.984Z,16.50
2022-11-05T08:15:28.076Z,16.47
2022-11-05T08:18:01.599Z,13.48
2022-11-05T08:20:28.180Z,13.00
2022-11-05T08:22:55.128Z,13.50
2022-11-05T08:25:21.667Z,14.65
2022-11-05T08:27:48.497Z,13.03
2022-11-05T08:30:15.056Z,12.07
2022-11-05T08:32:41.920Z,11.30
2022-11-05T08:35:08.759Z,11.18
2022-11-05T08:37:35.256Z,12.02
2022-11-05T08:40:01.808Z,12.47
2022-11-05T08:42:28.569Z,11.68
2022-11-05T08:44:55.054Z,11.85
2022-11-05T08:47:21.753Z,12.38
2022-11-05T08:49:48.269Z,11.13
2022-11-05T08:52:14.898Z,13.50
2022-11-05T08:54:43.101Z,10.60
2022-11-05T08:57:09.766Z,12.32
2022-11-05T08:59:36.284Z,10.00
2022-11-05T09:02:02.901Z,11.50
2022-11-05T09:04:29.683Z,9.67
2022-11-05T09:06:56.163Z,11.63
2022-11-05T09:09:22.731Z,10.52
2022-11-05T09:12:10.998Z,9.50
2022-11-05T09:14:35.821Z,12.13
2022-11-05T09:17:02.457Z,12.17
2022-11-05T09:19:28.952Z,10.60
2022-11-05T09:21:55.731Z,10.40
2022-11-05T09:24:23.357Z,12.05
2022-11-05T09:26:49.871Z,9.30
2022-11-05T09:29:16.388Z,10.80
2022-11-05T09:31:43.057Z,11.55
2022-11-05T09:34:09.584Z,10.55
2022-11-05T09:36:36.099Z,10.50
2022-11-05T09:39:02.713Z,10.98
2022-11-05T09:41:31.938Z,11.00
2022-11-05T09:44:04.562Z,11.05
2022-11-05T09:46:42.859Z,14.73
2022-11-05T09:49:22.230Z,13.07
2022-11-05T09:51:48.813Z,12.15
2022-11-05T09:54:15.644Z,13.13
2022-11-05T09:56:42.255Z,13.65
2022-11-05T09:59:22.639Z,13.18
2022-11-05T10:01:52.426Z,13.25
2022-11-05T10:04:22.567Z,13.23
2022-11-05T10:06:55.326Z,13.07
2022-11-05T10:09:28.998Z,13.75
2022-11-05T10:12:11.735Z,12.75
2022-11-05T10:14:44.061Z,13.68
2022-11-05T10:17:17.845Z,10.77
2022-11-05T10:20:16.817Z,13.87
2022-11-05T10:22:49.183Z,11.35
2022-11-05T10:25:18.984Z,11.38
2022-11-05T10:27:57.201Z,10.60
2022-11-05T10:30:23.739Z,12.52
2022-11-05T10:32:55.336Z,14.20
2022-11-05T10:35:24.524Z,11.68
2022-11-05T10:37:53.416Z,12.85
2022-11-05T10:40:30.337Z,11.85
2022-11-05T10:43:04.514Z,13.18
2022-11-05T10:45:34.200Z,11.40
2022-11-05T10:48:23.941Z,9.57
2022-11-05T10:50:50.491Z,13.10
2022-11-05T10:53:22.398Z,13.02
2022-11-05T10:55:51.170Z,12.73
2022-11-05T10:58:17.616Z,15.13
2022-11-05T11:01:05.533Z,14.07
2022-11-05T11:03:37.689Z,16.45
2022-11-05T11:06:28.515Z,15.10
2022-11-05T11:09:01.378Z,14.02
2022-11-05T11:11:42.787Z,12.87
2022-11-05T11:14:12.404Z,11.88
2022-11-05T11:16:41.758Z,11.32
2022-11-05T11:19:23.764Z,11.82
2022-11-05T11:22:13.769Z,11.13
2022-11-05T11:24:43.002Z,12.20
2022-11-05T11:27:33.352Z,12.50
2022-11-05T11:30:05.468Z,8.20
2022-11-05T11:32:36.387Z,9.70
2022-11-05T11:35:04.872Z,10.50
2022-11-05T11:37:36.046Z,10.57
2022-11-05T11:40:19.233Z,8.55
2022-11-05T11:42:52.910Z,9.02
2022-11-05T11:45:45.840Z,9.50
2022-11-05T11:48:21.880Z,8.82
2022-11-05T11:50:49.392Z,12.80
2022-11-05T11:53:22.098Z,10.18
2022-11-05T11:56:01.961Z,9.73
2022-11-05T11:58:54.309Z,12.18
2022-11-05T12:02:02.437Z,10.35
2022-11-05T12:04:29.415Z,9.27
2022-11-05T12:07:07.712Z,9.57
2022-11-05T12:09:53.036Z,11.30
2022-11-05T12:12:28.792Z,10.18
2022-11-05T12:15:12.831Z,11.52
2022-11-05T12:18:06.512Z,10.00
2022-11-05T12:20:32.978Z,9.88
2022-11-05T12:23:24.210Z,10.07
2022-11-05T12:26:12.433Z,10.27
2022-11-05T12:29:17.811Z,10.00
2022-11-05T12:31:49.880Z,11.20
2022-11-05T12:34:48.398Z,10.40
2022-11-05T12:37:30.743Z,11.32
2022-11-05T12:40:18.180Z,8.45
2022-11-05T12:43:17.178Z,9.95
2022-11-05T12:46:16.151Z,9.77
2022-11-05T12:49:13.621Z,11.20
2022-11-05T12:51:54.462Z,14.73
2022-11-05T12:54:26.627Z,8.70
2022-11-05T12:56:59.178Z,10.68
2022-11-05T12:59:34.763Z,9.07
2022-11-05T13:02:22.572Z,10.60
2022-11-05T13:05:20.980Z,7.18
2022-11-05T13:08:13.774Z,9.85
2022-11-05T13:10:50.965Z,9.68
2022-11-05T13:13:37.209Z,7.67
2022-11-05T13:16:12.296Z,9.13
2022-11-05T13:19:20.486Z,9.63
2022-11-05T13:22:16.362Z,8.25
2022-11-05T13:24:53.058Z,10.10
2022-11-05T13:27:22.680Z,7.78
2022-11-05T13:29:53.483Z,8.65
2022-11-05T13:32:39.290Z,10.07
2022-11-05T13:35:14.710Z,8.95
2022-11-05T13:38:03.311Z,8.23
2022-11-05T13:40:47.470Z,10.05
2022-11-05T13:43:32.752Z,8.75
2022-11-05T13:46:14.103Z,8.75
2022-11-05T13:48:40.593Z,10.07
2022-11-05T13:51:14.104Z,9.77
2022-11-05T13:54:05.465Z,9.43
2022-11-05T13:56:44.181Z,10.80
2022-11-05T13:59:50.125Z,10.40
2022-11-05T14:02:28.540Z,8.20
2022-11-05T14:05:01.352Z,9.93
2022-11-05T14:07:34.484Z,8.50
2022-11-05T14:10:20.602Z,13.60
2022-11-05T14:12:51.269Z,9.35
2022-11-05T14:15:26.181Z,10.70
2022-11-05T14:18:18.455Z,8.93
2022-11-05T14:20:58.482Z,9.35
2022-11-05T14:23:25.210Z,9.98
2022-11-05T14:25:55.565Z,8.43
2022-11-05T14:28:34.117Z,10.15
2022-11-05T14:31:05.156Z,9.13
2022-11-05T14:34:01.979Z,8.23
2022-11-05T14:36:32.442Z,11.30
2022-11-05T14:39:13.442Z,9.45
2022-11-05T14:42:01.784Z,10.38
2022-11-05T14:44:30.015Z,7.80
2022-11-05T14:47:04.446Z,7.60
2022-11-05T14:49:54.226Z,10.02
2022-11-05T14:52:21.118Z,7.25
2022-11-05T14:54:50.693Z,8.13
2022-11-05T14:57:42.944Z,8.45
2022-11-05T15:00:28.148Z,9.70
2022-11-05T15:03:25.311Z,9.10
2022-11-05T15:05:53.033Z,8.75
2022-11-05T15:08:35.416Z,7.15
2022-11-05T15:11:23.064Z,8.00
2022-11-05T15:14:03.903Z,9.80
2022-11-05T15:16:48.498Z,8.60
2022-11-05T15:19:21.207Z,9.52
2022-11-05T15:21:48.327Z,8.88
2022-11-05T15:24:17.834Z,13.73
2022-11-05T15:26:54.823Z,9.13
2022-11-05T15:29:25.767Z,10.57
2022-11-05T15:31:53.248Z,8.25
2022-11-05T15:34:19.974Z,8.95
2022-11-05T15:36:52.078Z,7.78
2022-11-05T15:39:48.904Z,10.17
2022-11-05T15:42:24.649Z,9.57
2022-11-05T15:44:53.964Z,10.23
2022-11-05T15:47:31.212Z,10.10
2022-11-05T15:50:01.379Z,15.18
2022-11-05T15:52:36.616Z,8.67
2022-11-05T15:55:30.291Z,13.52
2022-11-05T15:58:04.506Z,9.52
2022-11-05T16:00:34.443Z,9.85
2022-11-05T16:03:05.258Z,9.60
2022-11-05T16:05:35.237Z,9.80
2022-11-05T16:08:04.368Z,10.63
2022-11-05T16:10:35.520Z,10.30
2022-11-05T16:13:31.211Z,11.48
2022-11-05T16:16:00.526Z,12.15
2022-11-05T16:18:38.664Z,9.90
2022-11-05T16:21:06.849Z,8.68
2022-11-05T16:23:48.479Z,10.45
2022-11-05T16:29:40.963Z,11.23
2022-11-05T16:32:33.871Z,10.63
2022-11-05T16:35:03.642Z,12.20
2022-11-05T16:37:37.789Z,13.75
2022-11-05T16:40:13.325Z,14.95
2022-11-05T16:42:40.988Z,14.95
2022-11-05T16:45:11.801Z,14.73
2022-11-05T16:47:38.326Z,14.20
2022-11-05T16:50:31.149Z,12.55
2022-11-05T16:52:57.859Z,16.95
2022-11-05T16:55:24.480Z,12.13
2022-11-05T16:57:55.715Z,13.80
2022-11-05T17:00:23.705Z,11.55
2022-11-05T17:02:51.209Z,13.48
2022-11-05T17:05:24.274Z,12.25
2022-11-05T17:07:51.173Z,12.77
2022-11-05T17:10:18.589Z,12.30
2022-11-05T17:12:45.947Z,11.07
2022-11-05T17:15:25.173Z,14.77
2022-11-05T17:17:53.504Z,16.65
2022-11-05T17:20:26.306Z,12.20
2022-11-05T17:22:53.111Z,12.53
2022-11-05T17:25:19.617Z,13.15
2022-11-05T17:27:46.124Z,14.57
2022-11-05T17:30:13.214Z,11.82
2022-11-05T17:32:40.017Z,12.93
2022-11-05T17:35:07.770Z,14.97
2022-11-05T17:37:34.503Z,14.38
2022-11-05T17:40:02.348Z,12.90
2022-11-05T17:42:28.894Z,13.48
2022-11-05T17:44:55.476Z,12.00
2022-11-05T17:47:22.198Z,11.83
2022-11-05T17:49:48.726Z,13.13
2022-11-05T17:52:15.358Z,11.02
2022-11-05T17:54:41.878Z,14.68
2022-11-05T17:57:08.459Z,14.65
2022-11-05T17:59:35.039Z,14.17
2022-11-05T18:02:01.725Z,14.75
2022-11-05T18:04:28.398Z,13.68
2022-11-05T18:06:54.879Z,15.15
2022-11-05T18:09:21.597Z,11.88
2022-11-05T18:11:48.122Z,14.07
2022-11-05T18:14:15.974Z,12.65
2022-11-05T18:16:44.229Z,14.02
2022-11-05T18:19:10.723Z,13.63
2022-11-05T18:21:37.314Z,12.35
2022-11-05T18:24:06.878Z,12.93
2022-11-05T18:26:34.177Z,12.73
2022-11-05T18:29:02.157Z,10.18
2022-11-05T18:31:28.675Z,15.63
2022-11-05T18:33:58.284Z,17.83
2022-11-05T18:36:29.249Z,14.17
2022-11-05T18:38:58.340Z,12.48
2022-11-05T18:41:25.101Z,13.82
2022-11-05T18:43:51.647Z,12.70
2022-11-05T18:46:43.142Z,9.88
2022-11-05T18:49:05.689Z,12.83
2022-11-05T18:51:32.599Z,13.25
2022-11-05T18:54:00.558Z,11.07
2022-11-05T18:56:27.069Z,13.13
2022-11-05T18:59:14.713Z,10.95
2022-11-05T19:01:40.798Z,13.03
2022-11-05T19:04:07.456Z,15.98
2022-11-05T19:06:34.906Z,13.27
2022-11-05T19:09:01.776Z,14.20
2022-11-05T19:11:28.309Z,12.60
2022-11-05T19:13:54.868Z,15.57
2022-11-05T19:16:24.091Z,13.60
2022-11-05T19:18:51.137Z,13.40
2022-11-05T19:21:20.693Z,16.33
2022-11-05T19:23:47.617Z,10.20
2022-11-05T19:26:16.529Z,15.33
2022-11-05T19:28:43.594Z,12.73
2022-11-05T19:31:16.255Z,12.93
2022-11-05T19:33:44.148Z,13.13
2022-11-05T19:36:12.038Z,12.60
2022-11-05T19:38:38.611Z,12.60
2022-11-05T19:41:08.059Z,12.88
2022-11-05T19:43:36.170Z,16.65
2022-11-05T19:46:22.677Z,13.95
2022-11-05T19:48:49.374Z,17.08
2022-11-05T19:51:18.852Z,13.73
2022-11-05T19:53:45.677Z,15.30
2022-11-05T19:56:18.099Z,13.02
2022-11-05T19:58:44.790Z,12.10
2022-11-05T20:01:12.999Z,13.48
2022-11-05T20:03:40.213Z,16.03
2022-11-05T20:06:09.943Z,14.20
2022-11-05T20:08:59.345Z,14.32
2022-11-05T20:11:24.537Z,14.90
2022-11-05T20:13:51.259Z,14.45
2022-11-05T20:16:24.995Z,13.30
2022-11-05T20:18:51.858Z,12.43
2022-11-05T20:21:19.037Z,14.00
2022-11-05T20:23:45.871Z,13.27
2022-11-05T20:26:13.425Z,16.67
2022-11-05T20:28:40.927Z,16.10
2022-11-05T20:31:11.280Z,15.90
2022-11-05T20:33:38.801Z,14.48
2022-11-05T20:36:09.779Z,14.50
2022-11-05T20:38:36.284Z,15.45
2022-11-05T20:41:07.942Z,14.90
2022-11-05T20:43:34.671Z,15.32
2022-11-05T20:46:01.284Z,15.38
2022-11-05T20:48:33.610Z,14.45
2022-11-05T20:51:04.155Z,14.23
2022-11-05T20:53:31.211Z,14.97
2022-11-05T20:55:57.715Z,13.10
2022-11-05T20:58:24.656Z,12.75
2022-11-05T21:00:55.626Z,13.05
2022-11-05T21:03:22.508Z,13.55
2022-11-05T21:05:52.162Z,12.03
2022-11-05T21:08:20.107Z,13.57
2022-11-05T21:10:51.085Z,12.10
2022-11-05T21:13:18.393Z,12.65
2022-11-05T21:15:50.238Z,15.00
2022-11-05T21:18:18.311Z,15.90
2022-11-05T21:20:46.298Z,14.27
2022-11-05T21:23:13.530Z,14.13
2022-11-05T21:25:40.876Z,18.92
2022-11-05T21:28:08.386Z,16.73
2022-11-05T21:30:37.153Z,12.57
2022-11-05T21:33:06.566Z,13.35
2022-11-05T21:35:33.509Z,15.18
2022-11-05T21:38:00.364Z,12.98
2022-11-05T21:40:26.919Z,15.50
2022-11-05T21:42:53.404Z,14.70
2022-11-05T21:45:19.923Z,12.82
2022-11-05T21:47:46.630Z,12.75
2022-11-05T21:50:15.199Z,12.98
2022-11-05T21:53:01.936Z,12.40
2022-11-05T21:55:46.954Z,13.73
2022-11-05T21:58:36.222Z,13.02
2022-11-05T22:01:03.319Z,13.77
2022-11-05T22:03:29.949Z,15.93
2022-11-05T22:05:57.228Z,18.33
2022-11-05T22:08:23.779Z,12.60
2022-11-05T22:10:50.252Z,13.75
2022-11-05T22:13:16.851Z,14.18
2022-11-05T22:15:43.365Z,14.00
2022-11-05T22:18:10.113Z,12.10
2022-11-05T22:20:39.848Z,14.80
2022-11-05T22:23:10.842Z,13.27
2022-11-05T22:25:37.949Z,12.32
2022-11-05T22:28:04.788Z,16.63
2022-11-05T22:30:35.482Z,14.23
2022-11-05T22:33:02.560Z,12.93
2022-11-05T22:35:29.094Z,13.00
2022-11-05T22:37:55.653Z,13.10
2022-11-05T22:40:23.956Z,14.30
2022-11-05T22:42:50.860Z,12.18
2022-11-05T22:45:17.435Z,15.33
2022-11-05T22:47:43.929Z,13.23
2022-11-05T22:50:10.486Z,13.75
2022-11-05T22:52:36.989Z,13.98
2022-11-05T22:55:06.198Z,17.45
2022-11-05T22:57:33.158Z,11.90
2022-11-05T22:59:59.635Z,14.48
2022-11-05T23:02:26.484Z,11.50
2022-11-05T23:04:53.147Z,12.95
2022-11-05T23:07:37.959Z,12.85
2022-11-05T23:10:23.987Z,13.37
2022-11-05T23:12:50.544Z,12.25
2022-11-05T23:15:35.736Z,11.93
2022-11-05T23:18:20.582Z,10.85
2022-11-05T23:21:05.956Z,11.30
2022-11-05T23:23:51.208Z,13.53
2022-11-05T23:26:36.525Z,14.80
2022-11-05T23:29:03.062Z,13.18
2022-11-05T23:31:48.273Z,13.73
2022-11-05T23:34:14.818Z,12.68
2022-11-05T23:36:59.857Z,13.60
2022-11-05T23:39:26.355Z,14.02
2022-11-05T23:42:11.387Z,11.68
2022-11-05T23:44:56.263Z,10.75
2022-11-05T23:47:41.122Z,12.00
2022-11-05T23:50:07.939Z,12.80
2022-11-05T23:52:34.482Z,9.93
2022-11-05T23:55:00.995Z,10.80
2022-11-05T23:57:27.507Z,11.70
2022-11-05T23:59:53.951Z,10.50
